sensor_id;sensor_type;location;lat;lon;timestamp;temperature;humidity
10129;DHT22;5104;50.720;7.044;2024-02-04T00:01:46;10.10;99.90
10129;DHT22;5104;50.720;7.044;2024-02-04T00:04:13;10.10;99.90
10129;DHT22;5104;50.720;7.044;2024-02-04T00:06:40;10.10;99.90
10129;DHT22;5104;50.720;7.044;2024-02-04T00:09:07;10.20;99.90
10129;DHT22;5104;50.720;7.044;2024-02-04T00:11:34;10.20;99.90
10129;DHT22;5104;50.720;7.044;2024-02-04T00:14:01;10.20;99.90
10129;DHT22;5104;50.720;7.044;2024-02-04T00:16:28;10.20;99.90
10129;DHT22;5104;50.720;7.044;2024-02-04T00:18:57;10.10;99.90
10129;DHT22;5104;50.720;7.044;2024-02-04T00:21:24;10.10;99.90
10129;DHT22;5104;50.720;7.044;2024-02-04T00:23:51;10.10;99.90
10129;DHT22;5104;50.720;7.044;2024-02-04T00:26:18;10.10;99.90
10129;DHT22;5104;50.720;7.044;2024-02-04T00:28:45;10.00;99.90
10129;DHT22;5104;50.720;7.044;2024-02-04T00:31:12;10.00;99.90
10129;DHT22;5104;50.720;7.044;2024-02-04T00:33:39;9.90;99.90
10129;DHT22;5104;50.720;7.044;2024-02-04T00:36:08;9.90;99.90
10129;DHT22;5104;50.720;7.044;2024-02-04T00:38:35;9.90;99.90
10129;DHT22;5104;50.720;7.044;2024-02-04T00:41:02;9.90;99.90
10129;DHT22;5104;50.720;7.044;2024-02-04T00:43:29;9.90;99.90
10129;DHT22;5104;50.720;7.044;2024-02-04T00:45:56;9.90;99.90
10129;DHT22;5104;50.720;7.044;2024-02-04T00:48:25;9.90;99.90
10129;DHT22;5104;50.720;7.044;2024-02-04T00:50:52;9.90;99.90
10129;DHT22;5104;50.720;7.044;2024-02-04T00:53:21;9.80;99.90
10129;DHT22;5104;50.720;7.044;2024-02-04T00:55:48;9.90;99.90
10129;DHT22;5104;50.720;7.044;2024-02-04T00:58:15;9.90;99.90
10129;DHT22;5104;50.720;7.044;2024-02-04T01:00:42;9.90;99.90
10129;DHT22;5104;50.720;7.044;2024-02-04T01:03:09;9.90;99.90
10129;DHT22;5104;50.720;7.044;2024-02-04T01:05:36;9.90;99.90
10129;DHT22;5104;50.720;7.044;2024-02-04T01:08:03;9.90;99.90
10129;DHT22;5104;50.720;7.044;2024-02-04T01:10:32;9.90;99.90
10129;DHT22;5104;50.720;7.044;2024-02-04T01:12:59;9.90;99.90
10129;DHT22;5104;50.720;7.044;2024-02-04T01:15:26;10.00;99.90
10129;DHT22;5104;50.720;7.044;2024-02-04T01:17:53;10.00;99.90
10129;DHT22;5104;50.720;7.044;2024-02-04T01:20:20;10.00;99.90
10129;DHT22;5104;50.720;7.044;2024-02-04T01:22:47;10.00;99.90
10129;DHT22;5104;50.720;7.044;2024-02-04T01:25:14;10.00;99.90
10129;DHT22;5104;50.720;7.044;2024-02-04T01:27:42;10.00;99.90
10129;DHT22;5104;50.720;7.044;2024-02-04T01:30:09;10.00;99.90
10129;DHT22;5104;50.720;7.044;2024-02-04T01:32:36;10.00;99.90
10129;DHT22;5104;50.720;7.044;2024-02-04T01:35:04;10.00;99.90
10129;DHT22;5104;50.720;7.044;2024-02-04T01:37:31;9.90;99.90
10129;DHT22;5104;50.720;7.044;2024-02-04T01:39:58;9.90;99.90
10129;DHT22;5104;50.720;7.044;2024-02-04T01:42:25;9.90;99.90
10129;DHT22;5104;50.720;7.044;2024-02-04T01:44:53;9.90;99.90
10129;DHT22;5104;50.720;7.044;2024-02-04T01:47:20;9.90;99.90
10129;DHT22;5104;50.720;7.044;2024-02-04T01:49:48;9.90;99.90
10129;DHT22;5104;50.720;7.044;2024-02-04T01:52:15;9.90;99.90
10129;DHT22;5104;50.720;7.044;2024-02-04T01:54:43;9.90;99.90
10129;DHT22;5104;50.720;7.044;2024-02-04T01:57:10;9.90;99.90
10129;DHT22;5104;50.720;7.044;2024-02-04T01:59:39;9.90;99.90
10129;DHT22;5104;50.720;7.044;2024-02-04T02:02:08;9.90;99.90
10129;DHT22;5104;50.720;7.044;2024-02-04T02:04:35;10.00;99.90
10129;DHT22;5104;50.720;7.044;2024-02-04T02:07:02;10.00;99.90
10129;DHT22;5104;50.720;7.044;2024-02-04T02:09:29;10.00;99.90
10129;DHT22;5104;50.720;7.044;2024-02-04T02:12:03;10.00;99.90
10129;DHT22;5104;50.720;7.044;2024-02-04T02:14:37;10.10;99.90
10129;DHT22;5104;50.720;7.044;2024-02-04T02:17:10;10.10;99.90
10129;DHT22;5104;50.720;7.044;2024-02-04T02:19:47;10.10;99.90
10129;DHT22;5104;50.720;7.044;2024-02-04T02:22:28;10.10;99.90
10129;DHT22;5104;50.720;7.044;2024-02-04T02:24:57;10.10;99.90
10129;DHT22;5104;50.720;7.044;2024-02-04T02:27:26;10.10;99.90
10129;DHT22;5104;50.720;7.044;2024-02-04T02:29:53;10.10;99.90
10129;DHT22;5104;50.720;7.044;2024-02-04T02:32:20;10.10;99.90
10129;DHT22;5104;50.720;7.044;2024-02-04T02:34:47;10.10;99.90
10129;DHT22;5104;50.720;7.044;2024-02-04T02:37:26;10.10;99.90
10129;DHT22;5104;50.720;7.044;2024-02-04T02:40:01;10.10;99.90
10129;DHT22;5104;50.720;7.044;2024-02-04T02:42:31;10.10;99.90
10129;DHT22;5104;50.720;7.044;2024-02-04T02:44:59;10.10;99.90
10129;DHT22;5104;50.720;7.044;2024-02-04T02:47:27;10.10;99.90
10129;DHT22;5104;50.720;7.044;2024-02-04T02:49:55;10.20;99.90
10129;DHT22;5104;50.720;7.044;2024-02-04T02:52:22;10.10;99.90
10129;DHT22;5104;50.720;7.044;2024-02-04T02:54:49;10.10;99.90
10129;DHT22;5104;50.720;7.044;2024-02-04T02:57:18;10.20;99.90
10129;DHT22;5104;50.720;7.044;2024-02-04T02:59:45;10.20;99.90
10129;DHT22;5104;50.720;7.044;2024-02-04T03:02:12;10.20;99.90
10129;DHT22;5104;50.720;7.044;2024-02-04T03:04:39;10.30;99.90
10129;DHT22;5104;50.720;7.044;2024-02-04T03:07:06;10.30;99.90
10129;DHT22;5104;50.720;7.044;2024-02-04T03:09:34;10.40;99.90
10129;DHT22;5104;50.720;7.044;2024-02-04T03:12:01;10.40;99.90
10129;DHT22;5104;50.720;7.044;2024-02-04T03:14:30;10.50;99.90
10129;DHT22;5104;50.720;7.044;2024-02-04T03:16:57;10.40;99.90
10129;DHT22;5104;50.720;7.044;2024-02-04T03:19:24;10.50;99.90
10129;DHT22;5104;50.720;7.044;2024-02-04T03:21:51;10.50;99.90
10129;DHT22;5104;50.720;7.044;2024-02-04T03:24:18;10.50;99.90
10129;DHT22;5104;50.720;7.044;2024-02-04T03:26:45;10.50;99.90
10129;DHT22;5104;50.720;7.044;2024-02-04T03:29:12;10.50;99.90
10129;DHT22;5104;50.720;7.044;2024-02-04T03:31:40;10.50;99.90
10129;DHT22;5104;50.720;7.044;2024-02-04T03:34:07;10.50;99.90
10129;DHT22;5104;50.720;7.044;2024-02-04T03:36:37;10.50;99.90
10129;DHT22;5104;50.720;7.044;2024-02-04T03:39:04;10.40;99.90
10129;DHT22;5104;50.720;7.044;2024-02-04T03:41:31;10.50;99.90
10129;DHT22;5104;50.720;7.044;2024-02-04T03:43:58;10.50;99.90
10129;DHT22;5104;50.720;7.044;2024-02-04T03:46:25;10.50;99.90
10129;DHT22;5104;50.720;7.044;2024-02-04T03:48:54;10.50;99.90
10129;DHT22;5104;50.720;7.044;2024-02-04T03:51:21;10.50;99.90
10129;DHT22;5104;50.720;7.044;2024-02-04T03:53:50;10.50;99.90
10129;DHT22;5104;50.720;7.044;2024-02-04T03:56:17;10.50;99.90
10129;DHT22;5104;50.720;7.044;2024-02-04T03:58:44;10.50;99.90
10129;DHT22;5104;50.720;7.044;2024-02-04T04:01:12;10.50;99.90
10129;DHT22;5104;50.720;7.044;2024-02-04T04:03:39;10.50;99.90
10129;DHT22;5104;50.720;7.044;2024-02-04T04:06:08;10.50;99.90
10129;DHT22;5104;50.720;7.044;2024-02-04T04:08:35;10.50;99.90
10129;DHT22;5104;50.720;7.044;2024-02-04T04:11:02;10.50;99.90
10129;DHT22;5104;50.720;7.044;2024-02-04T04:13:30;10.50;99.90
10129;DHT22;5104;50.720;7.044;2024-02-04T04:15:57;10.50;99.90
10129;DHT22;5104;50.720;7.044;2024-02-04T04:18:25;10.60;99.90
10129;DHT22;5104;50.720;7.044;2024-02-04T04:20:52;10.60;99.90
10129;DHT22;5104;50.720;7.044;2024-02-04T04:23:20;10.60;99.90
10129;DHT22;5104;50.720;7.044;2024-02-04T04:25:47;10.60;99.90
10129;DHT22;5104;50.720;7.044;2024-02-04T04:28:14;10.60;99.90
10129;DHT22;5104;50.720;7.044;2024-02-04T04:30:41;10.60;99.90
10129;DHT22;5104;50.720;7.044;2024-02-04T04:33:08;10.60;99.90
10129;DHT22;5104;50.720;7.044;2024-02-04T04:35:35;10.60;99.90
10129;DHT22;5104;50.720;7.044;2024-02-04T04:38:02;10.60;99.90
10129;DHT22;5104;50.720;7.044;2024-02-04T04:40:30;10.60;99.90
10129;DHT22;5104;50.720;7.044;2024-02-04T04:42:57;10.60;99.90
10129;DHT22;5104;50.720;7.044;2024-02-04T04:45:24;10.60;99.90
10129;DHT22;5104;50.720;7.044;2024-02-04T04:47:51;10.50;99.90
10129;DHT22;5104;50.720;7.044;2024-02-04T04:50:18;10.60;99.90
10129;DHT22;5104;50.720;7.044;2024-02-04T04:52:45;10.50;99.90
10129;DHT22;5104;50.720;7.044;2024-02-04T04:55:12;10.50;99.90
10129;DHT22;5104;50.720;7.044;2024-02-04T04:57:41;10.50;99.90
10129;DHT22;5104;50.720;7.044;2024-02-04T05:00:09;10.60;99.90
10129;DHT22;5104;50.720;7.044;2024-02-04T05:02:36;10.60;99.90
10129;DHT22;5104;50.720;7.044;2024-02-04T05:05:04;10.60;99.90
10129;DHT22;5104;50.720;7.044;2024-02-04T05:07:31;10.60;99.90
10129;DHT22;5104;50.720;7.044;2024-02-04T05:09:58;10.70;99.90
10129;DHT22;5104;50.720;7.044;2024-02-04T05:12:25;10.70;99.90
10129;DHT22;5104;50.720;7.044;2024-02-04T05:14:54;10.70;99.90
10129;DHT22;5104;50.720;7.044;2024-02-04T05:17:21;10.60;99.90
10129;DHT22;5104;50.720;7.044;2024-02-04T05:19:48;10.60;99.90
10129;DHT22;5104;50.720;7.044;2024-02-04T05:22:15;10.70;99.90
10129;DHT22;5104;50.720;7.044;2024-02-04T05:24:42;10.70;99.90
10129;DHT22;5104;50.720;7.044;2024-02-04T05:27:09;10.60;99.90
10129;DHT22;5104;50.720;7.044;2024-02-04T05:29:36;10.60;99.90
10129;DHT22;5104;50.720;7.044;2024-02-04T05:32:05;10.60;99.90
10129;DHT22;5104;50.720;7.044;2024-02-04T05:34:33;10.50;99.90
10129;DHT22;5104;50.720;7.044;2024-02-04T05:37:00;10.50;99.90
10129;DHT22;5104;50.720;7.044;2024-02-04T05:39:28;10.50;99.90
10129;DHT22;5104;50.720;7.044;2024-02-04T05:41:55;10.50;99.90
10129;DHT22;5104;50.720;7.044;2024-02-04T05:44:22;10.50;99.90
10129;DHT22;5104;50.720;7.044;2024-02-04T05:46:49;10.50;99.90
10129;DHT22;5104;50.720;7.044;2024-02-04T05:49:17;10.50;99.90
10129;DHT22;5104;50.720;7.044;2024-02-04T05:51:44;10.50;99.90
10129;DHT22;5104;50.720;7.044;2024-02-04T05:54:11;10.50;99.90
10129;DHT22;5104;50.720;7.044;2024-02-04T05:56:39;10.50;99.90
10129;DHT22;5104;50.720;7.044;2024-02-04T05:59:05;10.50;99.90
10129;DHT22;5104;50.720;7.044;2024-02-04T06:01:32;10.50;99.90
10129;DHT22;5104;50.720;7.044;2024-02-04T06:03:59;10.50;99.90
10129;DHT22;5104;50.720;7.044;2024-02-04T06:06:29;10.50;99.90
10129;DHT22;5104;50.720;7.044;2024-02-04T06:08:55;10.50;99.90
10129;DHT22;5104;50.720;7.044;2024-02-04T06:11:22;10.50;99.90
10129;DHT22;5104;50.720;7.044;2024-02-04T06:13:49;10.50;99.90
10129;DHT22;5104;50.720;7.044;2024-02-04T06:16:16;10.50;99.90
10129;DHT22;5104;50.720;7.044;2024-02-04T06:18:43;10.50;99.90
10129;DHT22;5104;50.720;7.044;2024-02-04T06:21:10;10.50;99.90
10129;DHT22;5104;50.720;7.044;2024-02-04T06:23:39;10.50;99.90
10129;DHT22;5104;50.720;7.044;2024-02-04T06:26:06;10.50;99.90
10129;DHT22;5104;50.720;7.044;2024-02-04T06:28:33;10.50;99.90
10129;DHT22;5104;50.720;7.044;2024-02-04T06:31:00;10.50;99.90
10129;DHT22;5104;50.720;7.044;2024-02-04T06:33:27;10.50;99.90
10129;DHT22;5104;50.720;7.044;2024-02-04T06:35:54;10.50;99.90
10129;DHT22;5104;50.720;7.044;2024-02-04T06:38:21;10.50;99.90
10129;DHT22;5104;50.720;7.044;2024-02-04T06:40:49;10.50;99.90
10129;DHT22;5104;50.720;7.044;2024-02-04T06:43:16;10.50;99.90
10129;DHT22;5104;50.720;7.044;2024-02-04T06:45:43;10.50;99.90
10129;DHT22;5104;50.720;7.044;2024-02-04T06:48:10;10.50;99.90
10129;DHT22;5104;50.720;7.044;2024-02-04T06:50:37;10.50;99.90
10129;DHT22;5104;50.720;7.044;2024-02-04T06:53:04;10.50;99.90
10129;DHT22;5104;50.720;7.044;2024-02-04T06:55:31;10.50;99.90
10129;DHT22;5104;50.720;7.044;2024-02-04T06:57:59;10.40;99.90
10129;DHT22;5104;50.720;7.044;2024-02-04T07:00:26;10.40;99.90
10129;DHT22;5104;50.720;7.044;2024-02-04T07:02:53;10.40;99.90
10129;DHT22;5104;50.720;7.044;2024-02-04T07:05:20;10.40;99.90
10129;DHT22;5104;50.720;7.044;2024-02-04T07:07:48;10.40;99.90
10129;DHT22;5104;50.720;7.044;2024-02-04T07:10:15;10.40;99.90
10129;DHT22;5104;50.720;7.044;2024-02-04T07:12:43;10.30;99.90
10129;DHT22;5104;50.720;7.044;2024-02-04T07:15:11;10.30;99.90
10129;DHT22;5104;50.720;7.044;2024-02-04T07:17:38;10.30;99.90
10129;DHT22;5104;50.720;7.044;2024-02-04T07:20:06;10.20;99.90
10129;DHT22;5104;50.720;7.044;2024-02-04T07:22:32;10.20;99.90
10129;DHT22;5104;50.720;7.044;2024-02-04T07:25:01;10.30;99.90
10129;DHT22;5104;50.720;7.044;2024-02-04T07:27:29;10.30;99.90
10129;DHT22;5104;50.720;7.044;2024-02-04T07:29:56;10.30;99.90
10129;DHT22;5104;50.720;7.044;2024-02-04T07:32:25;10.40;99.90
10129;DHT22;5104;50.720;7.044;2024-02-04T07:34:51;10.40;99.90
10129;DHT22;5104;50.720;7.044;2024-02-04T07:37:18;10.50;99.90
10129;DHT22;5104;50.720;7.044;2024-02-04T07:39:45;10.50;99.90
10129;DHT22;5104;50.720;7.044;2024-02-04T07:42:12;10.60;99.90
10129;DHT22;5104;50.720;7.044;2024-02-04T07:44:39;10.60;99.90
10129;DHT22;5104;50.720;7.044;2024-02-04T07:47:06;10.70;99.90
10129;DHT22;5104;50.720;7.044;2024-02-04T07:49:34;10.70;99.90
10129;DHT22;5104;50.720;7.044;2024-02-04T07:52:01;10.70;99.90
10129;DHT22;5104;50.720;7.044;2024-02-04T07:54:29;10.80;99.90
10129;DHT22;5104;50.720;7.044;2024-02-04T07:56:56;10.80;99.90
10129;DHT22;5104;50.720;7.044;2024-02-04T07:59:22;10.80;99.90
10129;DHT22;5104;50.720;7.044;2024-02-04T08:01:49;10.90;99.90
10129;DHT22;5104;50.720;7.044;2024-02-04T08:04:16;10.90;99.90
10129;DHT22;5104;50.720;7.044;2024-02-04T08:06:44;11.00;99.90
10129;DHT22;5104;50.720;7.044;2024-02-04T08:09:11;11.00;99.90
10129;DHT22;5104;50.720;7.044;2024-02-04T08:11:38;11.00;99.90
10129;DHT22;5104;50.720;7.044;2024-02-04T08:14:05;11.00;99.90
10129;DHT22;5104;50.720;7.044;2024-02-04T08:16:32;11.10;1.00
10129;DHT22;5104;50.720;7.044;2024-02-04T08:18:59;11.10;1.00
10129;DHT22;5104;50.720;7.044;2024-02-04T08:21:26;11.20;1.00
10129;DHT22;5104;50.720;7.044;2024-02-04T08:23:54;11.20;23.30
10129;DHT22;5104;50.720;7.044;2024-02-04T08:26:21;11.40;1.00
10129;DHT22;5104;50.720;7.044;2024-02-04T08:28:48;11.40;1.00
10129;DHT22;5104;50.720;7.044;2024-02-04T08:31:15;11.40;86.40
10129;DHT22;5104;50.720;7.044;2024-02-04T08:33:42;11.40;99.90
10129;DHT22;5104;50.720;7.044;2024-02-04T08:36:09;11.50;1.00
10129;DHT22;5104;50.720;7.044;2024-02-04T08:38:36;11.50;99.90
10129;DHT22;5104;50.720;7.044;2024-02-04T08:41:06;11.50;1.00
10129;DHT22;5104;50.720;7.044;2024-02-04T08:43:33;11.40;1.00
10129;DHT22;5104;50.720;7.044;2024-02-04T08:46:00;11.60;1.00
10129;DHT22;5104;50.720;7.044;2024-02-04T08:48:27;11.60;1.00
10129;DHT22;5104;50.720;7.044;2024-02-04T08:50:54;11.70;99.90
10129;DHT22;5104;50.720;7.044;2024-02-04T08:53:21;11.80;1.00
10129;DHT22;5104;50.720;7.044;2024-02-04T08:55:49;11.90;99.90
10129;DHT22;5104;50.720;7.044;2024-02-04T08:58:17;12.00;1.00
10129;DHT22;5104;50.720;7.044;2024-02-04T09:00:44;12.00;99.90
10129;DHT22;5104;50.720;7.044;2024-02-04T09:03:11;12.00;1.00
10129;DHT22;5104;50.720;7.044;2024-02-04T09:05:39;12.10;1.00
10129;DHT22;5104;50.720;7.044;2024-02-04T09:08:06;12.10;1.00
10129;DHT22;5104;50.720;7.044;2024-02-04T09:10:33;12.00;1.00
10129;DHT22;5104;50.720;7.044;2024-02-04T09:13:00;12.00;1.00
10129;DHT22;5104;50.720;7.044;2024-02-04T09:15:28;12.00;1.00
10129;DHT22;5104;50.720;7.044;2024-02-04T09:17:55;12.10;1.00
10129;DHT22;5104;50.720;7.044;2024-02-04T09:20:22;12.10;99.90
10129;DHT22;5104;50.720;7.044;2024-02-04T09:22:49;12.10;99.90
10129;DHT22;5104;50.720;7.044;2024-02-04T09:25:15;12.10;99.90
10129;DHT22;5104;50.720;7.044;2024-02-04T09:27:42;12.20;1.00
10129;DHT22;5104;50.720;7.044;2024-02-04T09:30:11;12.10;1.00
10129;DHT22;5104;50.720;7.044;2024-02-04T09:32:39;12.20;1.00
10129;DHT22;5104;50.720;7.044;2024-02-04T09:35:06;12.20;99.90
10129;DHT22;5104;50.720;7.044;2024-02-04T09:37:34;12.20;99.90
10129;DHT22;5104;50.720;7.044;2024-02-04T09:40:01;12.20;99.90
10129;DHT22;5104;50.720;7.044;2024-02-04T09:42:30;12.20;1.00
10129;DHT22;5104;50.720;7.044;2024-02-04T09:44:57;12.10;1.00
10129;DHT22;5104;50.720;7.044;2024-02-04T09:47:24;12.20;1.00
10129;DHT22;5104;50.720;7.044;2024-02-04T09:49:53;12.20;1.00
10129;DHT22;5104;50.720;7.044;2024-02-04T09:52:28;12.20;99.90
10129;DHT22;5104;50.720;7.044;2024-02-04T09:54:59;12.30;1.00
10129;DHT22;5104;50.720;7.044;2024-02-04T09:57:26;12.40;99.90
10129;DHT22;5104;50.720;7.044;2024-02-04T09:59:52;12.50;23.90
10129;DHT22;5104;50.720;7.044;2024-02-04T10:02:20;12.40;99.90
10129;DHT22;5104;50.720;7.044;2024-02-04T10:04:49;12.40;70.00
10129;DHT22;5104;50.720;7.044;2024-02-04T10:07:18;12.50;1.00
10129;DHT22;5104;50.720;7.044;2024-02-04T10:09:45;12.50;1.00
10129;DHT22;5104;50.720;7.044;2024-02-04T10:12:12;12.50;1.00
10129;DHT22;5104;50.720;7.044;2024-02-04T10:14:39;12.40;1.00
10129;DHT22;5104;50.720;7.044;2024-02-04T10:17:07;12.40;1.00
10129;DHT22;5104;50.720;7.044;2024-02-04T10:19:33;12.40;1.00
10129;DHT22;5104;50.720;7.044;2024-02-04T10:22:01;12.50;1.00
10129;DHT22;5104;50.720;7.044;2024-02-04T10:24:30;12.60;1.00
10129;DHT22;5104;50.720;7.044;2024-02-04T10:26:57;12.60;1.00
10129;DHT22;5104;50.720;7.044;2024-02-04T10:29:25;12.70;1.00
10129;DHT22;5104;50.720;7.044;2024-02-04T10:31:53;12.70;1.00
10129;DHT22;5104;50.720;7.044;2024-02-04T10:34:22;12.70;1.00
10129;DHT22;5104;50.720;7.044;2024-02-04T10:36:49;12.80;1.00
10129;DHT22;5104;50.720;7.044;2024-02-04T10:39:16;12.90;1.00
10129;DHT22;5104;50.720;7.044;2024-02-04T10:41:49;13.00;1.00
10129;DHT22;5104;50.720;7.044;2024-02-04T10:44:21;13.10;1.00
10129;DHT22;5104;50.720;7.044;2024-02-04T10:46:49;13.10;99.90
10129;DHT22;5104;50.720;7.044;2024-02-04T10:49:18;13.20;99.90
10129;DHT22;5104;50.720;7.044;2024-02-04T10:51:46;13.10;99.90
10129;DHT22;5104;50.720;7.044;2024-02-04T10:54:15;13.10;99.90
10129;DHT22;5104;50.720;7.044;2024-02-04T10:56:45;13.10;15.00
10129;DHT22;5104;50.720;7.044;2024-02-04T10:59:15;13.10;54.90
10129;DHT22;5104;50.720;7.044;2024-02-04T11:01:43;13.10;99.90
10129;DHT22;5104;50.720;7.044;2024-02-04T11:04:14;13.20;1.00
10129;DHT22;5104;50.720;7.044;2024-02-04T11:06:43;13.20;49.80
10129;DHT22;5104;50.720;7.044;2024-02-04T11:09:11;13.20;50.90
10129;DHT22;5104;50.720;7.044;2024-02-04T11:11:40;13.30;1.00
10129;DHT22;5104;50.720;7.044;2024-02-04T11:14:12;13.30;1.00
10129;DHT22;5104;50.720;7.044;2024-02-04T11:17:07;13.50;1.00
10129;DHT22;5104;50.720;7.044;2024-02-04T11:19:51;13.40;1.00
10129;DHT22;5104;50.720;7.044;2024-02-04T11:22:40;13.40;1.00
10129;DHT22;5104;50.720;7.044;2024-02-04T11:25:32;13.30;1.00
10129;DHT22;5104;50.720;7.044;2024-02-04T11:28:04;13.50;1.00
10129;DHT22;5104;50.720;7.044;2024-02-04T11:30:34;13.30;1.00
10129;DHT22;5104;50.720;7.044;2024-02-04T11:33:01;13.30;1.00
10129;DHT22;5104;50.720;7.044;2024-02-04T11:35:29;13.10;1.00
10129;DHT22;5104;50.720;7.044;2024-02-04T11:37:56;13.10;1.00
10129;DHT22;5104;50.720;7.044;2024-02-04T11:40:23;13.00;1.00
10129;DHT22;5104;50.720;7.044;2024-02-04T11:43:04;12.90;1.00
10129;DHT22;5104;50.720;7.044;2024-02-04T11:45:31;12.90;1.00
10129;DHT22;5104;50.720;7.044;2024-02-04T11:48:01;12.90;1.00
10129;DHT22;5104;50.720;7.044;2024-02-04T11:50:30;12.90;1.00
10129;DHT22;5104;50.720;7.044;2024-02-04T11:53:05;12.80;6.40
10129;DHT22;5104;50.720;7.044;2024-02-04T11:55:34;12.80;99.90
10129;DHT22;5104;50.720;7.044;2024-02-04T11:58:01;12.90;99.90
10129;DHT22;5104;50.720;7.044;2024-02-04T12:00:28;12.80;1.00
10129;DHT22;5104;50.720;7.044;2024-02-04T12:03:04;12.70;1.00
10129;DHT22;5104;50.720;7.044;2024-02-04T12:05:32;12.70;1.00
10129;DHT22;5104;50.720;7.044;2024-02-04T12:08:01;12.70;1.00
10129;DHT22;5104;50.720;7.044;2024-02-04T12:10:29;12.70;1.00
10129;DHT22;5104;50.720;7.044;2024-02-04T12:12:57;12.80;1.00
10129;DHT22;5104;50.720;7.044;2024-02-04T12:15:25;12.80;1.00
10129;DHT22;5104;50.720;7.044;2024-02-04T12:17:52;12.70;1.00
10129;DHT22;5104;50.720;7.044;2024-02-04T12:20:20;12.90;1.00
10129;DHT22;5104;50.720;7.044;2024-02-04T12:22:47;12.90;99.90
10129;DHT22;5104;50.720;7.044;2024-02-04T12:25:16;13.00;99.90
10129;DHT22;5104;50.720;7.044;2024-02-04T12:27:44;13.10;99.90
10129;DHT22;5104;50.720;7.044;2024-02-04T12:30:13;13.20;22.00
10129;DHT22;5104;50.720;7.044;2024-02-04T12:32:40;13.00;90.10
10129;DHT22;5104;50.720;7.044;2024-02-04T12:35:08;13.10;1.00
10129;DHT22;5104;50.720;7.044;2024-02-04T12:37:51;13.10;99.90
10129;DHT22;5104;50.720;7.044;2024-02-04T12:40:21;13.30;1.00
10129;DHT22;5104;50.720;7.044;2024-02-04T12:42:53;13.30;1.00
10129;DHT22;5104;50.720;7.044;2024-02-04T12:45:20;13.40;1.00
10129;DHT22;5104;50.720;7.044;2024-02-04T12:47:49;13.50;1.00
10129;DHT22;5104;50.720;7.044;2024-02-04T12:50:17;13.60;1.00
10129;DHT22;5104;50.720;7.044;2024-02-04T12:52:45;13.50;1.00
10129;DHT22;5104;50.720;7.044;2024-02-04T12:55:25;13.70;99.90
10129;DHT22;5104;50.720;7.044;2024-02-04T12:58:01;13.70;99.90
10129;DHT22;5104;50.720;7.044;2024-02-04T13:00:29;13.70;99.90
10129;DHT22;5104;50.720;7.044;2024-02-04T13:02:57;13.80;99.90
10129;DHT22;5104;50.720;7.044;2024-02-04T13:05:24;13.80;99.90
10129;DHT22;5104;50.720;7.044;2024-02-04T13:07:56;13.80;99.90
10129;DHT22;5104;50.720;7.044;2024-02-04T13:10:26;13.60;99.90
10129;DHT22;5104;50.720;7.044;2024-02-04T13:13:00;13.50;99.90
10129;DHT22;5104;50.720;7.044;2024-02-04T13:15:28;13.50;1.00
10129;DHT22;5104;50.720;7.044;2024-02-04T13:17:55;13.50;1.00
10129;DHT22;5104;50.720;7.044;2024-02-04T13:20:22;13.50;1.00
10129;DHT22;5104;50.720;7.044;2024-02-04T13:22:49;13.40;1.00
10129;DHT22;5104;50.720;7.044;2024-02-04T13:25:19;13.20;1.00
10129;DHT22;5104;50.720;7.044;2024-02-04T13:27:47;13.30;1.00
10129;DHT22;5104;50.720;7.044;2024-02-04T13:30:15;13.20;1.00
10129;DHT22;5104;50.720;7.044;2024-02-04T13:32:42;13.10;1.00
10129;DHT22;5104;50.720;7.044;2024-02-04T13:35:09;13.10;1.00
10129;DHT22;5104;50.720;7.044;2024-02-04T13:37:37;13.20;1.00
10129;DHT22;5104;50.720;7.044;2024-02-04T13:40:06;13.20;1.00
10129;DHT22;5104;50.720;7.044;2024-02-04T13:42:35;13.20;1.00
10129;DHT22;5104;50.720;7.044;2024-02-04T13:45:04;13.20;1.00
10129;DHT22;5104;50.720;7.044;2024-02-04T13:47:31;13.30;1.00
10129;DHT22;5104;50.720;7.044;2024-02-04T13:49:58;13.20;1.00
10129;DHT22;5104;50.720;7.044;2024-02-04T13:52:25;13.20;1.00
10129;DHT22;5104;50.720;7.044;2024-02-04T13:54:52;13.30;1.00
10129;DHT22;5104;50.720;7.044;2024-02-04T13:57:19;13.20;1.00
10129;DHT22;5104;50.720;7.044;2024-02-04T13:59:45;13.20;1.00
10129;DHT22;5104;50.720;7.044;2024-02-04T14:02:14;13.20;1.00
10129;DHT22;5104;50.720;7.044;2024-02-04T14:04:41;13.40;1.00
10129;DHT22;5104;50.720;7.044;2024-02-04T14:07:08;13.40;1.00
10129;DHT22;5104;50.720;7.044;2024-02-04T14:09:35;13.50;1.00
10129;DHT22;5104;50.720;7.044;2024-02-04T14:12:03;13.50;1.00
10129;DHT22;5104;50.720;7.044;2024-02-04T14:14:30;13.30;1.00
10129;DHT22;5104;50.720;7.044;2024-02-04T14:16:57;13.20;1.00
10129;DHT22;5104;50.720;7.044;2024-02-04T14:19:25;13.00;1.00
10129;DHT22;5104;50.720;7.044;2024-02-04T14:21:52;13.00;1.00
10129;DHT22;5104;50.720;7.044;2024-02-04T14:24:19;13.00;1.00
10129;DHT22;5104;50.720;7.044;2024-02-04T14:26:46;13.00;57.30
10129;DHT22;5104;50.720;7.044;2024-02-04T14:29:13;12.90;1.00
10129;DHT22;5104;50.720;7.044;2024-02-04T14:31:41;13.00;1.00
10129;DHT22;5104;50.720;7.044;2024-02-04T14:34:08;13.10;1.00
10129;DHT22;5104;50.720;7.044;2024-02-04T14:36:37;13.10;1.00
10129;DHT22;5104;50.720;7.044;2024-02-04T14:39:04;13.10;1.00
10129;DHT22;5104;50.720;7.044;2024-02-04T14:41:34;13.10;1.00
10129;DHT22;5104;50.720;7.044;2024-02-04T14:44:01;13.00;1.00
10129;DHT22;5104;50.720;7.044;2024-02-04T14:46:28;12.90;42.70
10129;DHT22;5104;50.720;7.044;2024-02-04T14:48:55;12.90;99.90
10129;DHT22;5104;50.720;7.044;2024-02-04T14:51:22;12.90;99.90
10129;DHT22;5104;50.720;7.044;2024-02-04T14:53:50;12.80;99.90
10129;DHT22;5104;50.720;7.044;2024-02-04T14:56:17;12.80;99.90
10129;DHT22;5104;50.720;7.044;2024-02-04T14:58:44;12.80;99.90
10129;DHT22;5104;50.720;7.044;2024-02-04T15:01:11;12.70;99.90
10129;DHT22;5104;50.720;7.044;2024-02-04T15:03:38;12.60;1.00
10129;DHT22;5104;50.720;7.044;2024-02-04T15:06:05;12.60;99.90
10129;DHT22;5104;50.720;7.044;2024-02-04T15:08:32;12.60;1.00
10129;DHT22;5104;50.720;7.044;2024-02-04T15:11:00;12.60;1.00
10129;DHT22;5104;50.720;7.044;2024-02-04T15:13:28;12.60;99.90
10129;DHT22;5104;50.720;7.044;2024-02-04T15:15:55;12.60;99.90
10129;DHT22;5104;50.720;7.044;2024-02-04T15:18:23;12.50;1.00
10129;DHT22;5104;50.720;7.044;2024-02-04T15:20:50;12.50;1.00
10129;DHT22;5104;50.720;7.044;2024-02-04T15:23:17;12.50;99.90
10129;DHT22;5104;50.720;7.044;2024-02-04T15:25:45;12.50;99.90
10129;DHT22;5104;50.720;7.044;2024-02-04T15:28:15;12.50;99.90
10129;DHT22;5104;50.720;7.044;2024-02-04T15:30:43;12.50;99.90
10129;DHT22;5104;50.720;7.044;2024-02-04T15:33:10;12.50;99.90
10129;DHT22;5104;50.720;7.044;2024-02-04T15:35:37;12.50;99.90
10129;DHT22;5104;50.720;7.044;2024-02-04T15:38:04;12.50;8.60
10129;DHT22;5104;50.720;7.044;2024-02-04T15:40:32;12.60;1.00
10129;DHT22;5104;50.720;7.044;2024-02-04T15:42:58;12.60;1.00
10129;DHT22;5104;50.720;7.044;2024-02-04T15:45:27;12.50;1.00
10129;DHT22;5104;50.720;7.044;2024-02-04T15:47:55;12.60;1.00
10129;DHT22;5104;50.720;7.044;2024-02-04T15:50:23;12.50;1.00
10129;DHT22;5104;50.720;7.044;2024-02-04T15:52:51;12.50;1.00
10129;DHT22;5104;50.720;7.044;2024-02-04T15:55:19;12.50;1.00
10129;DHT22;5104;50.720;7.044;2024-02-04T15:57:49;12.50;1.00